< < Back
Terminal Aerodrome Forecast


Current Version              Previous Versions:   1  2  3  4  5  6  7  8  9  

Terminal Aerodrome Forecast

400
FTUS42 KGSP 291731
TAFAND
TAF
KAND 291731Z 2918/3018 10006KT P6SM SCT090 BKN250
     FM292100 11006KT P6SM SCT070 BKN090 OVC200
     FM300300 00000KT P6SM SCT050 BKN070 OVC150
     FM301500 07005KT P6SM VCSH OVC035=



Latest METAR

082
SAUS70 KWBC 300500 RRA
MTRAND
METAR KAND 300456Z AUTO 00000KT 10SM OVC120 22/18 A3015 RMK AO2 SLP198
T02220178 402890178


USA.gov is the U.S. government's official web portal to all federal, state and local government web resources and services.